createdAt,value
2022-09-23T00:01:02.034Z,45.5
2022-09-23T00:02:08.306Z,45.5
2022-09-23T00:03:14.602Z,45.5
2022-09-23T00:04:21.210Z,45.5
2022-09-23T00:05:27.490Z,45.5
2022-09-23T00:06:33.794Z,45.5
2022-09-23T00:08:46.382Z,45.5
2022-09-23T00:09:52.691Z,45.5
2022-09-23T00:10:59.034Z,45
2022-09-23T00:13:11.619Z,45.5
2022-09-23T00:14:23.486Z,45.5
2022-09-23T00:15:36.557Z,45
2022-09-23T00:16:49.718Z,45
2022-09-23T00:18:09.477Z,45.5
2022-09-23T00:19:15.755Z,45
2022-09-23T00:20:29.002Z,45
2022-09-23T00:21:40.708Z,45
2022-09-23T00:22:55.310Z,45.5
2022-09-23T00:23:53.281Z,45.5
2022-09-23T00:24:59.588Z,45
2022-09-23T00:26:05.897Z,45.5
2022-09-23T00:28:18.470Z,45
2022-09-23T00:29:24.763Z,45
2022-09-23T00:30:31.087Z,45
2022-09-23T00:31:37.343Z,45
2022-09-23T00:33:49.929Z,45
2022-09-23T00:35:01.825Z,45
2022-09-23T00:36:14.865Z,45
2022-09-23T00:38:41.027Z,45.5
2022-09-23T00:39:54.088Z,45
2022-09-23T00:41:07.189Z,45
2022-09-23T00:42:34.280Z,45
2022-09-23T00:43:46.008Z,45
2022-09-23T00:45:05.851Z,45
2022-09-23T00:46:25.754Z,45
2022-09-23T00:48:00.846Z,45
2022-09-23T00:48:57.443Z,45
2022-09-23T00:50:10.519Z,45
2022-09-23T00:51:23.613Z,45
2022-09-23T00:53:50.282Z,45
2022-09-23T00:55:03.343Z,45
2022-09-23T00:56:15.229Z,45
2022-09-23T00:57:49.102Z,45.5
2022-09-23T00:58:55.397Z,45
2022-09-23T01:00:15.237Z,45
2022-09-23T01:01:40.825Z,45
2022-09-23T01:03:02.459Z,45.5
2022-09-23T01:04:07.083Z,45.5
2022-09-23T01:05:20.129Z,45.5
2022-09-23T01:06:33.754Z,45.5
2022-09-23T01:08:03.446Z,45.5
2022-09-23T01:08:59.902Z,45
2022-09-23T01:10:19.064Z,45
2022-09-23T01:11:30.985Z,45
2022-09-23T01:13:49.118Z,45
2022-09-23T01:14:55.408Z,45
2022-09-23T01:16:01.683Z,44.5
2022-09-23T01:17:08.362Z,44.5
2022-09-23T01:18:14.560Z,44.5
2022-09-23T01:19:20.866Z,44.5
2022-09-23T01:20:27.153Z,44.5
2022-09-23T01:21:33.425Z,44.5
2022-09-23T01:23:46.098Z,44
2022-09-23T01:24:52.364Z,44
2022-09-23T01:25:58.681Z,44
2022-09-23T01:27:04.993Z,44
2022-09-23T01:28:11.257Z,44
2022-09-23T01:29:17.558Z,44
2022-09-23T01:30:23.847Z,44
2022-09-23T01:31:30.126Z,43.5
2022-09-23T01:33:42.713Z,43.5
2022-09-23T01:34:54.574Z,43.5
2022-09-23T01:36:06.484Z,43.5
2022-09-23T01:37:41.542Z,43.5
2022-09-23T01:38:38.200Z,43.5
2022-09-23T01:39:51.270Z,43.5
2022-09-23T01:41:04.425Z,43.5
2022-09-23T01:43:30.583Z,43.5
2022-09-23T01:44:44.148Z,43.5
2022-09-23T01:45:56.035Z,43.5
2022-09-23T01:47:29.650Z,43.5
2022-09-23T01:48:36.021Z,43.5
2022-09-23T01:49:56.324Z,43
2022-09-23T01:51:21.750Z,43
2022-09-23T01:52:43.281Z,43
2022-09-23T01:53:47.918Z,43.5
2022-09-23T01:55:00.988Z,43.5
2022-09-23T01:56:14.029Z,44
2022-09-23T01:57:44.082Z,43.5
2022-09-23T01:58:40.732Z,44
2022-09-23T01:59:59.556Z,44
2022-09-23T02:01:06.012Z,44
2022-09-23T02:03:18.429Z,44
2022-09-23T02:04:24.741Z,44
2022-09-23T02:05:30.999Z,44.5
2022-09-23T02:06:37.290Z,44.5
2022-09-23T02:07:47.124Z,44.5
2022-09-23T02:08:49.895Z,44.5
2022-09-23T02:09:56.179Z,44.5
2022-09-23T02:11:02.483Z,44.5
2022-09-23T02:12:08.767Z,44.5
2022-09-23T02:13:15.088Z,44.5
2022-09-23T02:14:21.374Z,44.5
2022-09-23T02:15:27.654Z,45
2022-09-23T02:16:33.980Z,45
2022-09-23T02:18:46.509Z,44.5
2022-09-23T02:19:58.391Z,45
2022-09-23T02:21:11.463Z,45
2022-09-23T02:22:41.154Z,45
2022-09-23T02:23:37.619Z,45
2022-09-23T02:24:50.765Z,45
2022-09-23T02:26:03.803Z,45
2022-09-23T02:27:15.710Z,45
2022-09-23T02:28:21.976Z,45
2022-09-23T02:29:28.314Z,45
2022-09-23T02:30:34.580Z,45
2022-09-23T02:31:40.885Z,45
2022-09-23T02:33:53.467Z,45
2022-09-23T02:35:05.311Z,45
2022-09-23T02:36:11.636Z,45
2022-09-23T02:37:17.886Z,45
2022-09-23T02:38:24.209Z,45
2022-09-23T02:39:30.764Z,45
2022-09-23T02:40:36.841Z,45
2022-09-23T02:41:43.071Z,45
2022-09-23T02:43:55.675Z,45
2022-09-23T02:45:07.562Z,45
2022-09-23T02:46:20.675Z,45
2022-09-23T02:47:42.085Z,45
2022-09-23T02:48:46.741Z,45
2022-09-23T02:49:59.835Z,45
2022-09-23T02:51:12.903Z,45
2022-09-23T02:53:31.389Z,45
2022-09-23T02:54:37.646Z,45
2022-09-23T02:55:43.937Z,45
2022-09-23T02:56:50.229Z,45
2022-09-23T02:59:02.848Z,45
2022-09-23T03:00:09.117Z,45
2022-09-23T03:01:15.507Z,45
2022-09-23T03:02:21.790Z,45
2022-09-23T03:03:27.995Z,45
2022-09-23T03:04:34.289Z,45
2022-09-23T03:05:40.552Z,45
2022-09-23T03:06:46.850Z,45
2022-09-23T03:08:59.505Z,45
2022-09-23T03:10:11.336Z,45
2022-09-23T03:11:24.402Z,45
2022-09-23T03:12:46.153Z,45
2022-09-23T03:13:50.533Z,45
2022-09-23T03:15:03.607Z,45
2022-09-23T03:16:16.748Z,45
2022-09-23T03:18:34.883Z,45
2022-09-23T03:19:41.130Z,45
2022-09-23T03:20:47.432Z,45
2022-09-23T03:21:53.721Z,45
2022-09-23T03:24:06.468Z,45
2022-09-23T03:25:12.607Z,45
2022-09-23T03:26:18.894Z,45
2022-09-23T03:28:31.459Z,45
2022-09-23T03:29:37.723Z,45
2022-09-23T03:30:44.061Z,45.5
2022-09-23T03:31:56.019Z,45.5
2022-09-23T03:33:11.199Z,45
2022-09-23T03:34:22.071Z,45
2022-09-23T03:35:35.657Z,45.5
2022-09-23T03:36:48.730Z,45.5
2022-09-23T03:38:17.812Z,45.5
2022-09-23T03:39:13.837Z,46
2022-09-23T03:40:20.190Z,47
2022-09-23T03:41:26.408Z,47
2022-09-23T03:42:32.701Z,46.5
2022-09-23T03:43:39.163Z,46.5
2022-09-23T03:45:51.725Z,46
2022-09-23T03:46:57.944Z,46
2022-09-23T03:48:04.238Z,46
2022-09-23T03:49:10.523Z,46
2022-09-23T03:51:23.118Z,46
2022-09-23T03:52:34.976Z,46
2022-09-23T03:53:48.080Z,46
2022-09-23T03:55:09.826Z,46
2022-09-23T03:56:14.401Z,46
2022-09-23T03:57:28.015Z,46
2022-09-23T03:58:41.100Z,46.5
2022-09-23T03:59:52.970Z,46.5
2022-09-23T04:00:59.300Z,46.5
2022-09-23T04:02:05.595Z,47
2022-09-23T04:03:12.099Z,47.5
2022-09-23T04:04:18.149Z,47.5
2022-09-23T04:05:34.650Z,47
2022-09-23T04:06:30.763Z,47
2022-09-23T04:07:37.018Z,47.5
2022-09-23T04:08:43.307Z,47.5
2022-09-23T04:10:55.899Z,47
2022-09-23T04:12:02.166Z,47.5
2022-09-23T04:13:08.507Z,47.5
2022-09-23T04:14:14.747Z,47.5
2022-09-23T04:15:22.889Z,47
2022-09-23T04:16:27.352Z,47
2022-09-23T04:17:33.623Z,47.5
2022-09-23T04:18:39.901Z,47
2022-09-23T04:20:52.818Z,47.5
2022-09-23T04:22:04.710Z,47
2022-09-23T04:23:17.758Z,47
2022-09-23T04:24:30.806Z,47
2022-09-23T04:25:43.901Z,47
2022-09-23T04:26:56.984Z,47
2022-09-23T04:28:15.614Z,47.5
2022-09-23T04:29:21.915Z,48
2022-09-23T04:31:35.014Z,47.5
2022-09-23T04:32:41.233Z,47.5
2022-09-23T04:33:47.524Z,47.5
2022-09-23T04:36:00.104Z,47.5
2022-09-23T04:37:06.383Z,47.5
2022-09-23T04:38:12.753Z,47.5
2022-09-23T04:39:18.969Z,47.5
2022-09-23T04:41:31.572Z,48
2022-09-23T04:42:43.439Z,47.5
2022-09-23T04:43:56.506Z,48
2022-09-23T04:45:18.041Z,48
2022-09-23T04:46:22.705Z,48.5
2022-09-23T04:47:35.731Z,48.5
2022-09-23T04:48:48.787Z,49
2022-09-23T04:51:06.948Z,50
2022-09-23T04:52:13.249Z,50.5
2022-09-23T04:53:19.556Z,51
2022-09-23T04:54:25.831Z,51
2022-09-23T04:56:38.429Z,51
2022-09-23T04:57:44.713Z,51
2022-09-23T04:58:51.003Z,51
2022-09-23T05:01:05.304Z,50.5
2022-09-23T05:02:09.953Z,51
2022-09-23T05:03:16.168Z,51
2022-09-23T05:04:28.051Z,51
2022-09-23T05:05:43.451Z,51
2022-09-23T05:06:54.178Z,51
2022-09-23T05:08:07.286Z,51
2022-09-23T05:09:20.615Z,51
2022-09-23T05:10:49.568Z,51
2022-09-23T05:11:45.683Z,51
2022-09-23T05:12:56.405Z,51
2022-09-23T05:13:58.164Z,51
2022-09-23T05:16:10.810Z,51.5
2022-09-23T05:17:17.009Z,51
2022-09-23T05:18:23.476Z,51.5
2022-09-23T05:19:29.779Z,51.5
2022-09-23T05:21:42.370Z,51
2022-09-23T05:22:48.689Z,51
2022-09-23T05:24:00.615Z,51
2022-09-23T05:25:22.287Z,50.5
2022-09-23T05:26:26.665Z,50.5
2022-09-23T05:27:39.916Z,50.5
2022-09-23T05:28:52.987Z,50.5
2022-09-23T05:30:22.523Z,50.5
2022-09-23T05:31:20.670Z,50.5
2022-09-23T05:32:31.545Z,50.5
2022-09-23T05:33:37.810Z,50.5
2022-09-23T05:34:44.105Z,51
2022-09-23T05:35:50.392Z,50.5
2022-09-23T05:36:56.695Z,50.5
2022-09-23T05:38:02.984Z,50.5
2022-09-23T05:39:09.392Z,50.5
2022-09-23T05:41:22.000Z,50
2022-09-23T05:42:28.129Z,50
2022-09-23T05:43:34.466Z,50
2022-09-23T05:44:40.725Z,50
2022-09-23T05:45:47.024Z,46.5
2022-09-23T05:46:53.594Z,49
2022-09-23T05:47:59.796Z,50
2022-09-23T05:49:06.078Z,49.5
2022-09-23T05:50:14.540Z,49.5
2022-09-23T05:51:18.673Z,49.5
2022-09-23T05:52:24.953Z,49
2022-09-23T05:53:31.300Z,49
2022-09-23T05:54:37.710Z,49
2022-09-23T05:55:46.502Z,49.5
2022-09-23T05:56:50.164Z,49.5
2022-09-23T05:57:56.443Z,49.5
2022-09-23T05:59:02.788Z,49.5
2022-09-23T06:01:15.310Z,49.5
2022-09-23T06:02:21.681Z,49.5
2022-09-23T06:03:27.943Z,49.5
2022-09-23T06:04:39.764Z,49.5
2022-09-23T06:05:46.069Z,49
2022-09-23T06:06:52.379Z,49
2022-09-23T06:07:58.663Z,49
2022-09-23T06:09:04.960Z,49
2022-09-23T06:11:17.507Z,49
2022-09-23T06:12:23.993Z,49
2022-09-23T06:13:30.106Z,49
2022-09-23T06:14:36.385Z,49
2022-09-23T06:16:48.989Z,49
2022-09-23T06:18:00.869Z,49
2022-09-23T06:19:13.916Z,49
2022-09-23T06:20:35.538Z,49
2022-09-23T06:21:40.078Z,49
2022-09-23T06:22:55.428Z,49
2022-09-23T06:24:06.337Z,49
2022-09-23T06:26:24.363Z,49
2022-09-23T06:27:30.672Z,49
2022-09-23T06:28:37.434Z,48.5
2022-09-23T06:30:50.028Z,48.5
2022-09-23T06:31:56.416Z,48.5
2022-09-23T06:33:02.615Z,48.5
2022-09-23T06:34:12.094Z,48.5
2022-09-23T06:36:37.444Z,48
2022-09-23T06:37:27.813Z,48
2022-09-23T06:38:34.113Z,48
2022-09-23T06:39:54.654Z,48
2022-09-23T06:40:59.047Z,48
2022-09-23T06:42:12.295Z,48
2022-09-23T06:43:25.202Z,48
2022-09-23T06:44:38.255Z,48
2022-09-23T06:45:51.354Z,48
2022-09-23T06:47:09.984Z,47.5
2022-09-23T06:48:16.276Z,47.5
2022-09-23T06:49:22.580Z,47.5
2022-09-23T06:51:35.165Z,47.5
2022-09-23T06:52:41.420Z,47.5
2022-09-23T06:53:47.733Z,47.5
2022-09-23T06:56:00.325Z,47.5
2022-09-23T06:57:06.611Z,47.5
2022-09-23T06:58:12.903Z,47.5
2022-09-23T06:59:19.218Z,47.5
2022-09-23T07:00:37.856Z,47.5
2022-09-23T07:01:49.803Z,47.5
2022-09-23T07:03:01.674Z,47.5
2022-09-23T07:04:14.960Z,47.5
2022-09-23T07:05:30.234Z,47.5
2022-09-23T07:06:41.102Z,47.5
2022-09-23T07:07:54.688Z,47.5
2022-09-23T07:09:13.353Z,47.5
2022-09-23T07:11:25.928Z,47.5
2022-09-23T07:12:32.206Z,47.5
2022-09-23T07:13:38.544Z,47.5
2022-09-23T07:15:51.159Z,47.5
2022-09-23T07:16:57.377Z,47.5
2022-09-23T07:18:03.669Z,47.5
2022-09-23T07:19:09.974Z,47.5
2022-09-23T07:20:19.842Z,47.5
2022-09-23T07:21:22.537Z,47.5
2022-09-23T07:22:34.429Z,47.5
2022-09-23T07:23:47.506Z,47.5
2022-09-23T07:25:09.063Z,47.5
2022-09-23T07:26:14.027Z,47.5
2022-09-23T07:27:27.110Z,47.5
2022-09-23T07:28:40.691Z,47.5
2022-09-23T07:31:00.789Z,47.5
2022-09-23T07:32:12.613Z,47.5
2022-09-23T07:33:24.680Z,47.5
2022-09-23T07:34:17.712Z,47.5
2022-09-23T07:36:30.297Z,47.5
2022-09-23T07:37:36.623Z,47.5
2022-09-23T07:38:45.364Z,47.5
2022-09-23T07:39:49.195Z,47.5
2022-09-23T07:40:55.481Z,47
2022-09-23T07:42:01.776Z,47
2022-09-23T07:43:08.055Z,47
2022-09-23T07:44:14.344Z,47.5
2022-09-23T07:46:26.993Z,47.5
2022-09-23T07:47:38.789Z,47.5
2022-09-23T07:48:51.872Z,47.5
2022-09-23T07:50:13.656Z,47
2022-09-23T07:51:18.021Z,47
2022-09-23T07:52:31.099Z,47
2022-09-23T07:53:44.154Z,47.5
2022-09-23T07:56:02.324Z,47.5
2022-09-23T07:57:08.594Z,47.5
2022-09-23T07:58:14.905Z,47.5
2022-09-23T07:59:21.222Z,47.5
2022-09-23T08:01:33.909Z,47.5
2022-09-23T08:02:40.134Z,47.5
2022-09-23T08:03:46.386Z,47.5
2022-09-23T08:04:52.637Z,47
2022-09-23T08:05:58.979Z,47
2022-09-23T08:07:05.283Z,47
2022-09-23T08:08:11.542Z,47
2022-09-23T08:09:17.834Z,47
2022-09-23T08:10:24.919Z,47
2022-09-23T08:11:30.921Z,47
2022-09-23T08:12:37.177Z,47
2022-09-23T08:13:43.511Z,47
2022-09-23T08:15:56.123Z,47
2022-09-23T08:17:02.420Z,47
2022-09-23T08:18:14.261Z,47
2022-09-23T08:19:27.368Z,47
2022-09-23T08:20:51.155Z,47
2022-09-23T08:21:53.495Z,47
2022-09-23T08:23:06.551Z,47
2022-09-23T08:24:19.610Z,47
2022-09-23T08:26:37.787Z,47
2022-09-23T08:27:44.094Z,47
2022-09-23T08:28:50.388Z,47
2022-09-23T08:31:03.042Z,47
2022-09-23T08:32:09.274Z,47
2022-09-23T08:33:18.520Z,47
2022-09-23T08:34:21.851Z,47
2022-09-23T08:36:34.413Z,47
2022-09-23T08:37:40.718Z,47
2022-09-23T08:38:47.019Z,47
2022-09-23T08:40:15.368Z,47
2022-09-23T08:41:11.956Z,47
2022-09-23T08:42:25.033Z,47
2022-09-23T08:43:38.085Z,47
2022-09-23T08:46:04.348Z,47
2022-09-23T08:47:17.312Z,47
2022-09-23T08:48:29.188Z,47
2022-09-23T08:50:03.018Z,47
2022-09-23T08:51:09.299Z,46.5
2022-09-23T08:52:29.203Z,47
2022-09-23T08:53:54.574Z,47
2022-09-23T08:55:16.358Z,47
2022-09-23T08:56:20.743Z,47
2022-09-23T08:57:33.803Z,47
2022-09-23T08:58:46.877Z,46.5
2022-09-23T09:00:16.582Z,46.5
2022-09-23T09:01:13.080Z,46.5
2022-09-23T09:02:25.381Z,46.5
2022-09-23T09:03:31.590Z,46.5
2022-09-23T09:04:37.888Z,46.5
2022-09-23T09:06:53.861Z,47
2022-09-23T09:07:56.763Z,46.5
2022-09-23T09:09:03.177Z,47
2022-09-23T09:11:15.654Z,47
2022-09-23T09:12:21.944Z,47
2022-09-23T09:13:28.238Z,47
2022-09-23T09:14:34.521Z,47
2022-09-23T09:15:48.766Z,47
2022-09-23T09:17:00.512Z,47
2022-09-23T09:18:12.686Z,47
2022-09-23T09:19:25.790Z,47
2022-09-23T09:20:54.351Z,47
2022-09-23T09:21:52.433Z,47
2022-09-23T09:23:04.284Z,47
2022-09-23T09:24:10.579Z,47
2022-09-23T09:26:23.184Z,47
2022-09-23T09:27:29.443Z,47
2022-09-23T09:28:35.762Z,47
2022-09-23T09:29:42.443Z,47
2022-09-23T09:30:48.792Z,47
2022-09-23T09:32:00.212Z,47
2022-09-23T09:33:06.490Z,47
2022-09-23T09:34:12.822Z,47
2022-09-23T09:35:20.044Z,47
2022-09-23T09:36:25.377Z,47
2022-09-23T09:37:31.887Z,47
2022-09-23T09:38:37.953Z,47
2022-09-23T09:40:50.568Z,47
2022-09-23T09:42:02.399Z,47
2022-09-23T09:43:34.561Z,47
2022-09-23T09:44:45.054Z,47
2022-09-23T09:45:41.624Z,47
2022-09-23T09:46:54.784Z,47
2022-09-23T09:48:07.769Z,47
2022-09-23T09:49:26.944Z,47
2022-09-23T09:51:39.537Z,47
2022-09-23T09:52:45.765Z,47
2022-09-23T09:53:52.084Z,47
2022-09-23T09:54:58.356Z,47
2022-09-23T09:56:05.713Z,47
2022-09-23T09:57:10.926Z,47
2022-09-23T09:58:17.201Z,47
2022-09-23T09:59:23.504Z,47
2022-09-23T10:01:36.177Z,47
2022-09-23T10:02:47.937Z,47
2022-09-23T10:04:01.034Z,47
2022-09-23T10:05:22.607Z,47
2022-09-23T10:06:27.562Z,47
2022-09-23T10:07:40.633Z,47
2022-09-23T10:08:53.710Z,47
2022-09-23T10:11:11.882Z,47
2022-09-23T10:12:18.156Z,47
2022-09-23T10:13:24.441Z,47
2022-09-23T10:14:30.750Z,47
2022-09-23T10:16:43.532Z,47
2022-09-23T10:17:49.781Z,47
2022-09-23T10:18:56.074Z,47
2022-09-23T10:21:08.718Z,47
2022-09-23T10:22:14.946Z,47
2022-09-23T10:23:21.251Z,47
2022-09-23T10:24:33.100Z,47
2022-09-23T10:25:48.424Z,47
2022-09-23T10:26:59.275Z,47
2022-09-23T10:28:12.314Z,47
2022-09-23T10:29:25.412Z,47
2022-09-23T10:30:54.521Z,47
2022-09-23T10:31:50.346Z,47
2022-09-23T10:32:56.638Z,46.5
2022-09-23T10:34:02.949Z,47
2022-09-23T10:36:15.548Z,47
2022-09-23T10:37:21.813Z,47
2022-09-23T10:38:28.119Z,47
2022-09-23T10:39:34.405Z,47
2022-09-23T10:41:46.986Z,47
2022-09-23T10:42:53.264Z,47
2022-09-23T10:44:05.154Z,47
2022-09-23T10:45:26.668Z,47
2022-09-23T10:46:31.347Z,47
2022-09-23T10:47:44.404Z,47
2022-09-23T10:48:57.442Z,47
2022-09-23T10:50:27.013Z,47
2022-09-23T10:51:26.039Z,47
2022-09-23T10:52:35.452Z,47
2022-09-23T10:53:41.755Z,47
2022-09-23T10:55:54.801Z,47
2022-09-23T10:57:01.076Z,47
2022-09-23T10:58:07.389Z,47
2022-09-23T10:59:13.671Z,47
2022-09-23T11:01:26.333Z,47
2022-09-23T11:02:32.552Z,47
2022-09-23T11:03:38.824Z,47
2022-09-23T11:04:45.208Z,47
2022-09-23T11:05:56.997Z,47
2022-09-23T11:07:10.148Z,47
2022-09-23T11:08:23.163Z,47
2022-09-23T11:09:36.225Z,47
2022-09-23T11:10:49.274Z,47
2022-09-23T11:12:07.954Z,47
2022-09-23T11:13:19.828Z,47
2022-09-23T11:14:31.694Z,47
2022-09-23T11:15:44.202Z,47
2022-09-23T11:16:44.365Z,47
2022-09-23T11:17:50.636Z,47
2022-09-23T11:18:56.886Z,47
2022-09-23T11:21:09.452Z,47
2022-09-23T11:22:15.780Z,47
2022-09-23T11:23:22.072Z,47
2022-09-23T11:24:28.335Z,47
2022-09-23T11:26:40.922Z,47
2022-09-23T11:27:52.792Z,47
2022-09-23T11:29:06.067Z,47
2022-09-23T11:31:32.371Z,47
2022-09-23T11:32:45.460Z,47
2022-09-23T11:33:59.052Z,47
2022-09-23T11:35:21.736Z,47
2022-09-23T11:36:37.746Z,47
2022-09-23T11:37:57.605Z,47
2022-09-23T11:39:17.973Z,47
2022-09-23T11:40:42.322Z,47
2022-09-23T11:41:43.131Z,47
2022-09-23T11:42:56.203Z,47
2022-09-23T11:44:09.822Z,47
2022-09-23T11:46:35.922Z,47
2022-09-23T11:47:49.509Z,47
2022-09-23T11:49:01.376Z,47
2022-09-23T11:50:28.018Z,47
2022-09-23T11:51:41.094Z,47
2022-09-23T11:53:00.949Z,47
2022-09-23T11:54:20.662Z,47
2022-09-23T11:55:51.333Z,47
2022-09-23T11:56:48.302Z,47
2022-09-23T11:57:58.828Z,47
2022-09-23T11:59:12.073Z,47
2022-09-23T12:00:40.388Z,47
2022-09-23T12:01:39.044Z,47
2022-09-23T12:02:58.720Z,47
2022-09-23T12:03:56.467Z,47
2022-09-23T12:06:08.883Z,47
2022-09-23T12:07:15.179Z,47
2022-09-23T12:08:21.488Z,47
2022-09-23T12:09:47.519Z,47
2022-09-23T12:10:36.946Z,47
2022-09-23T12:11:40.331Z,47
2022-09-23T12:12:46.655Z,47
2022-09-23T12:13:52.955Z,47
2022-09-23T12:16:05.527Z,47
2022-09-23T12:17:17.427Z,47
2022-09-23T12:18:30.473Z,47
2022-09-23T12:19:43.538Z,47
2022-09-23T12:20:56.612Z,47
2022-09-23T12:22:09.688Z,47
2022-09-23T12:23:28.342Z,47
2022-09-23T12:24:34.623Z,47
2022-09-23T12:25:51.146Z,47
2022-09-23T12:26:47.212Z,47
2022-09-23T12:27:53.496Z,47
2022-09-23T12:28:59.783Z,47
2022-09-23T12:31:12.522Z,47
2022-09-23T12:32:18.667Z,47
2022-09-23T12:33:24.997Z,47
2022-09-23T12:34:31.248Z,47
2022-09-23T12:35:39.317Z,47
2022-09-23T12:36:43.849Z,47
2022-09-23T12:37:50.113Z,47
2022-09-23T12:38:56.454Z,47
2022-09-23T12:41:09.027Z,47
2022-09-23T12:42:20.889Z,47
2022-09-23T12:43:33.935Z,47
2022-09-23T12:44:47.022Z,47
2022-09-23T12:46:00.139Z,47
2022-09-23T12:47:13.162Z,47
2022-09-23T12:48:31.842Z,47
2022-09-23T12:49:38.113Z,47
2022-09-23T12:50:56.268Z,47
2022-09-23T12:51:51.175Z,47
2022-09-23T12:52:57.460Z,47
2022-09-23T12:54:03.835Z,47
2022-09-23T12:56:16.357Z,47
2022-09-23T12:57:22.651Z,47
2022-09-23T12:58:28.985Z,47
2022-09-23T12:59:40.851Z,47
2022-09-23T13:01:53.523Z,47
2022-09-23T13:03:05.302Z,47
2022-09-23T13:04:18.388Z,47
2022-09-23T13:05:33.680Z,47
2022-09-23T13:06:44.523Z,47
2022-09-23T13:07:57.573Z,47
2022-09-23T13:09:16.280Z,47
2022-09-23T13:10:37.112Z,47
2022-09-23T13:11:28.824Z,47
2022-09-23T13:12:35.111Z,47
2022-09-23T13:13:41.414Z,47
2022-09-23T13:14:47.706Z,47
2022-09-23T13:15:53.995Z,47
2022-09-23T13:17:00.289Z,47
2022-09-23T13:18:06.574Z,47
2022-09-23T13:19:12.878Z,47
2022-09-23T13:21:25.508Z,47
2022-09-23T13:22:31.781Z,47
2022-09-23T13:23:38.033Z,47
2022-09-23T13:24:44.349Z,47
2022-09-23T13:26:56.985Z,47
2022-09-23T13:28:08.793Z,47
2022-09-23T13:29:21.843Z,47
2022-09-23T13:30:43.575Z,47
2022-09-23T13:31:48.037Z,47
2022-09-23T13:33:01.074Z,47
2022-09-23T13:34:14.130Z,47
2022-09-23T13:36:32.307Z,47
2022-09-23T13:37:38.601Z,47
2022-09-23T13:38:44.890Z,47
2022-09-23T13:39:51.221Z,47
2022-09-23T13:40:57.513Z,47
2022-09-23T13:42:03.747Z,47
2022-09-23T13:43:10.046Z,47
2022-09-23T13:44:16.480Z,47
2022-09-23T13:46:29.064Z,47
2022-09-23T13:47:35.363Z,47
2022-09-23T13:48:41.645Z,47
2022-09-23T13:49:48.044Z,47
2022-09-23T13:50:54.251Z,47
2022-09-23T13:52:00.596Z,47
2022-09-23T13:53:06.853Z,47
2022-09-23T13:54:13.106Z,47
2022-09-23T13:56:25.771Z,47
2022-09-23T13:57:37.607Z,47
2022-09-23T13:58:50.656Z,47
2022-09-23T14:00:12.407Z,47
2022-09-23T14:01:17.094Z,47
2022-09-23T14:02:30.128Z,47
2022-09-23T14:03:43.665Z,47
2022-09-23T14:06:01.827Z,47
2022-09-23T14:07:08.134Z,47
2022-09-23T14:08:14.412Z,47
2022-09-23T14:09:20.697Z,47
2022-09-23T14:11:33.281Z,47
2022-09-23T14:12:39.571Z,47
2022-09-23T14:13:45.851Z,47
2022-09-23T14:15:58.503Z,47
2022-09-23T14:17:04.729Z,47
2022-09-23T14:18:11.028Z,47
2022-09-23T14:19:23.261Z,47
2022-09-23T14:20:38.813Z,47
2022-09-23T14:21:49.403Z,47
2022-09-23T14:23:02.475Z,47
2022-09-23T14:24:15.547Z,47
2022-09-23T14:26:40.519Z,47
2022-09-23T14:27:46.764Z,47
2022-09-23T14:28:53.060Z,47
2022-09-23T14:31:05.996Z,47
2022-09-23T14:32:12.177Z,47
2022-09-23T14:33:18.462Z,47
2022-09-23T14:34:24.771Z,47
2022-09-23T14:36:37.325Z,47
2022-09-23T14:37:43.667Z,46.5
2022-09-23T14:38:49.957Z,46.5
2022-09-23T14:40:10.588Z,46.5
2022-09-23T14:41:14.884Z,46.5
2022-09-23T14:42:27.990Z,46.5
2022-09-23T14:43:41.034Z,46.5
2022-09-23T14:45:10.569Z,46.5
2022-09-23T14:46:07.254Z,46.5
2022-09-23T14:47:25.834Z,46.5
2022-09-23T14:48:37.716Z,46.5
2022-09-23T14:49:43.989Z,47
2022-09-23T14:50:55.891Z,47
2022-09-23T14:52:02.219Z,47
2022-09-23T14:53:08.470Z,46.5
2022-09-23T14:54:14.729Z,46.5
2022-09-23T14:56:27.348Z,46.5
2022-09-23T14:57:33.810Z,46.5
2022-09-23T14:58:40.064Z,47
2022-09-23T14:59:46.361Z,47
2022-09-23T15:00:52.669Z,47
2022-09-23T15:01:58.950Z,47
2022-09-23T15:03:05.323Z,47
2022-09-23T15:04:11.561Z,47
2022-09-23T15:06:24.156Z,47
2022-09-23T15:07:36.030Z,47
2022-09-23T15:08:49.123Z,47
2022-09-23T15:10:18.644Z,47
2022-09-23T15:11:15.227Z,47
2022-09-23T15:12:28.307Z,47
2022-09-23T15:13:41.404Z,47
2022-09-23T15:14:53.256Z,47
2022-09-23T15:15:59.615Z,47
2022-09-23T15:17:05.840Z,46.5
2022-09-23T15:18:12.128Z,47
2022-09-23T15:19:18.437Z,46.5
2022-09-23T15:20:24.737Z,46.5
2022-09-23T15:21:31.023Z,47
2022-09-23T15:22:37.298Z,46.5
2022-09-23T15:23:43.587Z,46.5
2022-09-23T15:24:49.879Z,47
2022-09-23T15:25:56.178Z,46.5
2022-09-23T15:27:02.457Z,47
2022-09-23T15:28:08.768Z,47
2022-09-23T15:29:15.186Z,47
2022-09-23T15:31:27.674Z,47
2022-09-23T15:32:33.916Z,47
2022-09-23T15:33:40.212Z,47
2022-09-23T15:34:46.538Z,47
2022-09-23T15:35:52.795Z,47
2022-09-23T15:36:59.098Z,47
2022-09-23T15:38:05.355Z,47
2022-09-23T15:39:11.667Z,47
2022-09-23T15:41:24.256Z,47
2022-09-23T15:42:30.551Z,47
2022-09-23T15:43:36.825Z,47
2022-09-23T15:44:43.185Z,47
2022-09-23T15:46:02.727Z,47
2022-09-23T15:46:55.822Z,47
2022-09-23T15:48:02.169Z,47
2022-09-23T15:49:08.427Z,47
2022-09-23T15:51:20.989Z,47
2022-09-23T15:52:32.879Z,47
2022-09-23T15:53:44.749Z,47
2022-09-23T15:56:09.720Z,47
2022-09-23T15:57:22.767Z,47
2022-09-23T15:58:35.844Z,47
2022-09-23T15:59:57.397Z,47.5
2022-09-23T16:01:02.074Z,47.5
2022-09-23T16:02:15.076Z,48
2022-09-23T16:03:26.937Z,48
2022-09-23T16:04:33.230Z,47.5
2022-09-23T16:05:49.919Z,47.5
2022-09-23T16:06:45.809Z,47.5
2022-09-23T16:07:52.076Z,47.5
2022-09-23T16:08:58.395Z,47.5
2022-09-23T16:11:10.987Z,47.5
2022-09-23T16:12:17.271Z,47.5
2022-09-23T16:13:23.717Z,47
2022-09-23T16:14:30.037Z,47
2022-09-23T16:16:42.731Z,47
2022-09-23T16:17:54.455Z,47
2022-09-23T16:19:07.683Z,47
2022-09-23T16:20:29.046Z,47
2022-09-23T16:21:33.670Z,46.5
2022-09-23T16:22:46.747Z,46.5
2022-09-23T16:23:59.817Z,46.5
2022-09-23T16:26:23.930Z,46
2022-09-23T16:27:30.209Z,46
2022-09-23T16:28:36.537Z,46
2022-09-23T16:29:42.806Z,46
2022-09-23T16:31:55.500Z,46
2022-09-23T16:33:01.673Z,46
2022-09-23T16:34:07.988Z,45.5
2022-09-23T16:36:20.546Z,45.5
2022-09-23T16:37:26.843Z,45.5
2022-09-23T16:38:38.737Z,45.5
2022-09-23T16:39:50.589Z,45.5
2022-09-23T16:41:02.516Z,45.5
2022-09-23T16:42:15.548Z,45.5
2022-09-23T16:43:28.625Z,45
2022-09-23T16:44:41.692Z,44.5
2022-09-23T16:45:57.193Z,45.5
2022-09-23T16:47:13.437Z,46
2022-09-23T16:48:19.696Z,45.5
2022-09-23T16:49:25.973Z,45.5
2022-09-23T16:50:42.663Z,45.5
2022-09-23T16:51:39.016Z,45.5
2022-09-23T16:52:45.159Z,45.5
2022-09-23T16:53:51.465Z,45
2022-09-23T16:56:04.030Z,45.5
2022-09-23T16:57:10.609Z,45
2022-09-23T16:58:16.884Z,45
2022-09-23T16:59:23.177Z,45.5
2022-09-23T17:00:31.762Z,45.5
2022-09-23T17:01:35.780Z,45.5
2022-09-23T17:02:42.111Z,45.5
2022-09-23T17:03:48.356Z,45.5
2022-09-23T17:06:04.637Z,45.5
2022-09-23T17:07:12.816Z,45.5
2022-09-23T17:08:25.973Z,45.5
2022-09-23T17:09:38.959Z,45.5
2022-09-23T17:11:02.246Z,45.5
2022-09-23T17:12:05.099Z,45.5
2022-09-23T17:13:18.163Z,46
2022-09-23T17:14:30.037Z,46
2022-09-23T17:16:42.663Z,46
2022-09-23T17:17:48.947Z,46
2022-09-23T17:18:55.212Z,46
2022-09-23T17:20:01.512Z,46
2022-09-23T17:21:07.815Z,46
2022-09-23T17:22:14.095Z,46
2022-09-23T17:23:20.387Z,46
2022-09-23T17:24:26.663Z,46
2022-09-23T17:26:39.276Z,46
2022-09-23T17:27:51.131Z,46
2022-09-23T17:29:04.212Z,46
2022-09-23T17:30:25.757Z,46.5
2022-09-23T17:31:30.385Z,46.5
2022-09-23T17:32:43.422Z,46.5
2022-09-23T17:33:56.521Z,46.5
2022-09-23T17:36:14.666Z,46.5
2022-09-23T17:37:26.535Z,46.5
2022-09-23T17:38:38.429Z,46.5
2022-09-23T17:39:44.705Z,46.5
2022-09-23T17:41:57.752Z,46.5
2022-09-23T17:43:04.045Z,46.5
2022-09-23T17:44:10.357Z,46.5
2022-09-23T17:46:22.926Z,46.5
2022-09-23T17:47:29.206Z,46.5
2022-09-23T17:48:35.498Z,47
2022-09-23T17:49:41.834Z,47
2022-09-23T17:50:55.956Z,47
2022-09-23T17:51:54.412Z,47
2022-09-23T17:53:06.276Z,47
2022-09-23T17:54:19.349Z,47
2022-09-23T17:55:48.913Z,47
2022-09-23T17:56:45.464Z,47
2022-09-23T17:57:58.553Z,47
2022-09-23T17:59:11.637Z,47
2022-09-23T18:01:29.811Z,47.5
2022-09-23T18:02:36.121Z,47.5
2022-09-23T18:03:42.344Z,47.5
2022-09-23T18:04:48.676Z,47.5
2022-09-23T18:07:01.247Z,47.5
2022-09-23T18:08:07.543Z,47.5